Chilcoot, CA (96105)

11:49 PM PDT on September 22, 2014 (GMT -0700)
Main Street Loyalton | Change Station
CLOSE
Current Station
Personal Weather Station
Location: Loyalton, CA
Elevation: 4964 ft
Nearby Weather Stations

Elev 4964 ft 39.68 °N, 120.24 °W | Updated 3 seconds ago

Partly Cloudy
Partly Cloudy
51.0 °F
Feels Like 51.0 °F
N
0.0
Wind Variable Wind from NE
Gusts 0.0 mph

Today
High -- | Low -- °F
--% Chance of Precip.
Yesterday
High -- | Low -- °F
Precip. -- in
6:48 AM 6:57 PM
Waning Crescent, 1% visible
Pressure 30.13 in
Visibility 6.0 miles
Clouds Clear
Dew Point 40 °F
Humidity 67%
Rainfall 0.00 in
Snow Depth 1 in , 0 in , 0 in
UV 0 out of 12
Pollen 6.70 out of 12
Air Quality Not available.
Flu Activity Not available.
METAR KRTS 230635Z AUTO 35004KT 6SM HZ CLR 15/03 A3013 RMK AO2

More Conditions Fewer Conditions

Pressure 30.13 in
Visibility 6.0 miles
Clouds Clear
Dew Point 40 °F
Humidity 67%
Rainfall 0.00 in
Snow Depth 1 in , 0 in , 0 in
UV 0 out of 12
Pollen 6.70 out of 12
Air Quality Not available.
Flu Activity Not available.
METAR KRTS 230635Z AUTO 35004KT 6SM HZ CLR 15/03 A3013 RMK AO2

More Conditions Fewer Conditions

10-Day Weather Forecast

Almanac

Astronomy

Sep. 22, 2014 Rise Set
Actual Time 6:48 AM PDT 6:57 PM PDT
Civil Twilight 6:21 AM PDT 7:24 PM PDT
Nautical Twilight 5:50 AM PDT 7:56 PM PDT
Astronomical Twilight 5:17 AM PDT 8:28 PM PDT
Moon 5:22 AM PDT (9/22) 6:07 PM PDT (9/22)
Length of Visible Light 13h 03m
Length of Day
12h 09m
Tomorrow will be 2m 36s shorter.
Waning Crescent, 1% of the Moon is Illuminated
Sep 23
Waning Crescent
Sep 24
New
Oct 1
First Quarter
Oct 8
Full
Oct 15
Last Quarter

Community

WunderPhotos

Upload Photos

1,755,608 photos uploaded!

Nearby

Snow Depth

Station Depth Elevation
Spratt Creek 1 in 6200 ft
Adin Mountain 0 in 6200 ft
Heavenly Valley 0 in 8850 ft
Summit Meadow 0 in 9122 ft
Forestdale Creek 0 in 8029 ft

Earthquake Activity

City Distance Mag. Time & Date
No recent earthquake activity has been reported nearby.
Minimum magnitude displayed is 2.5.

Coastal Water Temperatures

Place Temperature
No Stations Reporting

Nearby Weather Stations